sensor_id;sensor_type;location;lat;lon;timestamp;temperature;humidity
16441;DHT22;8330;-33.858;151.184;2023-02-15T00:00:46;23.80;99.90
16441;DHT22;8330;-33.858;151.184;2023-02-15T00:03:17;23.80;99.90
16441;DHT22;8330;-33.858;151.184;2023-02-15T00:05:53;23.80;99.90
16441;DHT22;8330;-33.858;151.184;2023-02-15T00:08:27;23.90;99.90
16441;DHT22;8330;-33.858;151.184;2023-02-15T00:11:05;23.90;99.90
16441;DHT22;8330;-33.858;151.184;2023-02-15T00:13:37;23.90;99.90
16441;DHT22;8330;-33.858;151.184;2023-02-15T00:16:11;23.80;99.90
16441;DHT22;8330;-33.858;151.184;2023-02-15T00:18:43;23.70;99.90
16441;DHT22;8330;-33.858;151.184;2023-02-15T00:21:16;23.80;99.90
16441;DHT22;8330;-33.858;151.184;2023-02-15T00:23:47;23.90;99.90
16441;DHT22;8330;-33.858;151.184;2023-02-15T00:26:20;24.00;99.90
16441;DHT22;8330;-33.858;151.184;2023-02-15T00:28:53;24.10;99.90
16441;DHT22;8330;-33.858;151.184;2023-02-15T00:31:24;24.10;99.90
16441;DHT22;8330;-33.858;151.184;2023-02-15T00:34:02;24.10;99.90
16441;DHT22;8330;-33.858;151.184;2023-02-15T00:36:35;24.20;99.90
16441;DHT22;8330;-33.858;151.184;2023-02-15T00:39:06;24.30;99.90
16441;DHT22;8330;-33.858;151.184;2023-02-15T00:41:39;24.40;99.90
16441;DHT22;8330;-33.858;151.184;2023-02-15T00:44:11;24.50;99.90
16441;DHT22;8330;-33.858;151.184;2023-02-15T00:46:42;24.60;99.90
16441;DHT22;8330;-33.858;151.184;2023-02-15T00:49:13;24.70;99.90
16441;DHT22;8330;-33.858;151.184;2023-02-15T00:51:46;24.80;99.90
16441;DHT22;8330;-33.858;151.184;2023-02-15T00:54:17;24.80;99.90
16441;DHT22;8330;-33.858;151.184;2023-02-15T00:56:51;24.80;99.90
16441;DHT22;8330;-33.858;151.184;2023-02-15T00:59:22;24.90;99.90
16441;DHT22;8330;-33.858;151.184;2023-02-15T01:01:55;24.80;99.90
16441;DHT22;8330;-33.858;151.184;2023-02-15T01:04:27;24.80;99.90
16441;DHT22;8330;-33.858;151.184;2023-02-15T01:07:00;24.80;99.90
16441;DHT22;8330;-33.858;151.184;2023-02-15T01:09:31;24.90;99.90
16441;DHT22;8330;-33.858;151.184;2023-02-15T01:12:03;24.90;99.90
16441;DHT22;8330;-33.858;151.184;2023-02-15T01:14:34;24.90;99.90
16441;DHT22;8330;-33.858;151.184;2023-02-15T01:17:06;24.90;99.90
16441;DHT22;8330;-33.858;151.184;2023-02-15T01:19:37;24.90;99.90
16441;DHT22;8330;-33.858;151.184;2023-02-15T01:22:15;24.90;99.90
16441;DHT22;8330;-33.858;151.184;2023-02-15T01:24:48;25.00;99.90
16441;DHT22;8330;-33.858;151.184;2023-02-15T01:27:19;25.10;99.90
16441;DHT22;8330;-33.858;151.184;2023-02-15T01:29:50;25.20;99.90
16441;DHT22;8330;-33.858;151.184;2023-02-15T01:32:21;25.10;99.90
16441;DHT22;8330;-33.858;151.184;2023-02-15T01:34:52;25.00;99.90
16441;DHT22;8330;-33.858;151.184;2023-02-15T01:37:25;24.90;99.90
16441;DHT22;8330;-33.858;151.184;2023-02-15T01:39:56;24.90;99.90
16441;DHT22;8330;-33.858;151.184;2023-02-15T01:42:28;24.90;99.90
16441;DHT22;8330;-33.858;151.184;2023-02-15T01:45:00;24.90;99.90
16441;DHT22;8330;-33.858;151.184;2023-02-15T01:47:35;25.00;99.90
16441;DHT22;8330;-33.858;151.184;2023-02-15T01:50:12;25.10;99.90
16441;DHT22;8330;-33.858;151.184;2023-02-15T01:52:50;25.20;99.90
16441;DHT22;8330;-33.858;151.184;2023-02-15T01:55:23;25.40;99.90
16441;DHT22;8330;-33.858;151.184;2023-02-15T01:57:55;25.40;99.90
16441;DHT22;8330;-33.858;151.184;2023-02-15T02:00:27;25.40;99.90
16441;DHT22;8330;-33.858;151.184;2023-02-15T02:02:58;25.30;99.90
16441;DHT22;8330;-33.858;151.184;2023-02-15T02:05:29;25.30;99.90
16441;DHT22;8330;-33.858;151.184;2023-02-15T02:08:03;25.30;99.90
16441;DHT22;8330;-33.858;151.184;2023-02-15T02:10:34;25.30;99.90
16441;DHT22;8330;-33.858;151.184;2023-02-15T02:13:06;25.30;99.90
16441;DHT22;8330;-33.858;151.184;2023-02-15T02:15:43;25.40;99.90
16441;DHT22;8330;-33.858;151.184;2023-02-15T02:18:29;25.30;99.90
16441;DHT22;8330;-33.858;151.184;2023-02-15T02:21:30;25.30;99.90
16441;DHT22;8330;-33.858;151.184;2023-02-15T02:27:33;25.50;99.90
16441;DHT22;8330;-33.858;151.184;2023-02-15T02:30:33;25.50;99.90
16441;DHT22;8330;-33.858;151.184;2023-02-15T02:33:30;25.50;99.90
16441;DHT22;8330;-33.858;151.184;2023-02-15T02:36:12;25.60;99.90
16441;DHT22;8330;-33.858;151.184;2023-02-15T02:39:02;25.70;99.90
16441;DHT22;8330;-33.858;151.184;2023-02-15T02:41:44;25.70;99.90
16441;DHT22;8330;-33.858;151.184;2023-02-15T02:44:21;25.80;99.90
16441;DHT22;8330;-33.858;151.184;2023-02-15T02:46:57;25.80;99.90
16441;DHT22;8330;-33.858;151.184;2023-02-15T02:49:36;25.80;99.90
16441;DHT22;8330;-33.858;151.184;2023-02-15T02:54:56;25.80;99.90
16441;DHT22;8330;-33.858;151.184;2023-02-15T02:57:28;25.90;99.90
16441;DHT22;8330;-33.858;151.184;2023-02-15T03:00:03;26.00;99.90
16441;DHT22;8330;-33.858;151.184;2023-02-15T03:02:37;26.00;99.90
16441;DHT22;8330;-33.858;151.184;2023-02-15T03:05:16;26.00;99.90
16441;DHT22;8330;-33.858;151.184;2023-02-15T03:07:50;26.10;99.90
16441;DHT22;8330;-33.858;151.184;2023-02-15T03:10:23;26.20;99.90
16441;DHT22;8330;-33.858;151.184;2023-02-15T03:12:55;26.10;99.90
16441;DHT22;8330;-33.858;151.184;2023-02-15T03:15:31;26.10;99.90
16441;DHT22;8330;-33.858;151.184;2023-02-15T03:18:18;26.10;99.90
16441;DHT22;8330;-33.858;151.184;2023-02-15T03:20:54;26.20;99.90
16441;DHT22;8330;-33.858;151.184;2023-02-15T03:23:27;26.30;99.90
16441;DHT22;8330;-33.858;151.184;2023-02-15T03:26:02;26.30;99.90
16441;DHT22;8330;-33.858;151.184;2023-02-15T03:28:38;26.30;99.90
16441;DHT22;8330;-33.858;151.184;2023-02-15T03:31:13;26.30;99.90
16441;DHT22;8330;-33.858;151.184;2023-02-15T03:33:52;26.40;99.90
16441;DHT22;8330;-33.858;151.184;2023-02-15T03:36:30;26.40;99.90
16441;DHT22;8330;-33.858;151.184;2023-02-15T03:39:09;26.40;99.90
16441;DHT22;8330;-33.858;151.184;2023-02-15T03:41:45;26.40;99.90
16441;DHT22;8330;-33.858;151.184;2023-02-15T03:44:22;26.40;99.90
16441;DHT22;8330;-33.858;151.184;2023-02-15T03:46:59;26.40;99.90
16441;DHT22;8330;-33.858;151.184;2023-02-15T03:49:38;26.50;99.90
16441;DHT22;8330;-33.858;151.184;2023-02-15T03:52:12;26.60;99.90
16441;DHT22;8330;-33.858;151.184;2023-02-15T03:54:45;26.50;99.90
16441;DHT22;8330;-33.858;151.184;2023-02-15T03:57:18;26.50;99.90
16441;DHT22;8330;-33.858;151.184;2023-02-15T04:00:10;26.50;99.90
16441;DHT22;8330;-33.858;151.184;2023-02-15T04:03:19;26.50;99.90
16441;DHT22;8330;-33.858;151.184;2023-02-15T04:05:53;26.50;99.90
16441;DHT22;8330;-33.858;151.184;2023-02-15T04:08:26;26.40;99.90
16441;DHT22;8330;-33.858;151.184;2023-02-15T04:11:09;26.40;99.90
16441;DHT22;8330;-33.858;151.184;2023-02-15T04:13:40;26.40;99.90
16441;DHT22;8330;-33.858;151.184;2023-02-15T04:16:11;26.40;99.90
16441;DHT22;8330;-33.858;151.184;2023-02-15T04:18:42;26.40;99.90
16441;DHT22;8330;-33.858;151.184;2023-02-15T04:21:30;26.40;99.90
16441;DHT22;8330;-33.858;151.184;2023-02-15T04:24:19;26.40;99.90
16441;DHT22;8330;-33.858;151.184;2023-02-15T04:27:06;26.30;99.90
16441;DHT22;8330;-33.858;151.184;2023-02-15T04:29:37;26.40;99.90
16441;DHT22;8330;-33.858;151.184;2023-02-15T04:32:08;26.50;99.90
16441;DHT22;8330;-33.858;151.184;2023-02-15T04:34:42;26.40;99.90
16441;DHT22;8330;-33.858;151.184;2023-02-15T04:37:13;26.40;99.90
16441;DHT22;8330;-33.858;151.184;2023-02-15T04:39:49;26.40;99.90
16441;DHT22;8330;-33.858;151.184;2023-02-15T04:42:20;26.50;99.90
16441;DHT22;8330;-33.858;151.184;2023-02-15T04:44:52;26.60;99.90
16441;DHT22;8330;-33.858;151.184;2023-02-15T04:47:23;26.60;99.90
16441;DHT22;8330;-33.858;151.184;2023-02-15T04:49:55;26.60;99.90
16441;DHT22;8330;-33.858;151.184;2023-02-15T04:52:26;26.60;99.90
16441;DHT22;8330;-33.858;151.184;2023-02-15T04:54:59;26.60;99.90
16441;DHT22;8330;-33.858;151.184;2023-02-15T04:57:30;26.60;99.90
16441;DHT22;8330;-33.858;151.184;2023-02-15T05:00:02;26.60;99.90
16441;DHT22;8330;-33.858;151.184;2023-02-15T05:02:33;26.70;99.90
16441;DHT22;8330;-33.858;151.184;2023-02-15T05:05:04;26.70;99.90
16441;DHT22;8330;-33.858;151.184;2023-02-15T05:07:37;26.80;99.90
16441;DHT22;8330;-33.858;151.184;2023-02-15T05:10:10;26.80;99.90
16441;DHT22;8330;-33.858;151.184;2023-02-15T05:12:41;26.90;99.90
16441;DHT22;8330;-33.858;151.184;2023-02-15T05:15:14;26.90;99.90
16441;DHT22;8330;-33.858;151.184;2023-02-15T05:17:45;27.00;99.90
16441;DHT22;8330;-33.858;151.184;2023-02-15T05:20:17;26.90;99.90
16441;DHT22;8330;-33.858;151.184;2023-02-15T05:22:48;27.10;99.90
16441;DHT22;8330;-33.858;151.184;2023-02-15T05:25:21;27.20;99.90
16441;DHT22;8330;-33.858;151.184;2023-02-15T05:28:10;27.20;99.90
16441;DHT22;8330;-33.858;151.184;2023-02-15T05:30:51;27.30;99.90
16441;DHT22;8330;-33.858;151.184;2023-02-15T05:33:29;27.40;99.90
16441;DHT22;8330;-33.858;151.184;2023-02-15T05:36:00;27.40;99.90
16441;DHT22;8330;-33.858;151.184;2023-02-15T05:38:32;27.40;99.90
16441;DHT22;8330;-33.858;151.184;2023-02-15T05:41:06;27.50;99.90
16441;DHT22;8330;-33.858;151.184;2023-02-15T05:43:38;27.60;99.90
16441;DHT22;8330;-33.858;151.184;2023-02-15T05:46:10;27.60;99.90
16441;DHT22;8330;-33.858;151.184;2023-02-15T05:48:41;27.80;99.90
16441;DHT22;8330;-33.858;151.184;2023-02-15T05:51:13;27.70;99.90
16441;DHT22;8330;-33.858;151.184;2023-02-15T05:53:44;27.90;99.90
16441;DHT22;8330;-33.858;151.184;2023-02-15T05:56:17;27.90;99.90
16441;DHT22;8330;-33.858;151.184;2023-02-15T05:58:48;28.00;99.90
16441;DHT22;8330;-33.858;151.184;2023-02-15T06:01:20;28.00;99.90
16441;DHT22;8330;-33.858;151.184;2023-02-15T06:03:52;28.00;99.90
16441;DHT22;8330;-33.858;151.184;2023-02-15T06:06:23;27.90;99.90
16441;DHT22;8330;-33.858;151.184;2023-02-15T06:08:54;28.00;99.90
16441;DHT22;8330;-33.858;151.184;2023-02-15T06:11:28;28.10;99.90
16441;DHT22;8330;-33.858;151.184;2023-02-15T06:13:59;28.10;99.90
16441;DHT22;8330;-33.858;151.184;2023-02-15T06:16:30;28.30;99.90
16441;DHT22;8330;-33.858;151.184;2023-02-15T06:19:03;28.30;99.90
16441;DHT22;8330;-33.858;151.184;2023-02-15T06:21:34;28.40;99.90
16441;DHT22;8330;-33.858;151.184;2023-02-15T06:24:07;28.30;99.90
16441;DHT22;8330;-33.858;151.184;2023-02-15T06:26:40;28.10;99.90
16441;DHT22;8330;-33.858;151.184;2023-02-15T06:29:11;28.20;99.90
16441;DHT22;8330;-33.858;151.184;2023-02-15T06:31:42;28.30;99.90
16441;DHT22;8330;-33.858;151.184;2023-02-15T06:34:13;28.40;99.90
16441;DHT22;8330;-33.858;151.184;2023-02-15T06:36:45;28.60;99.90
16441;DHT22;8330;-33.858;151.184;2023-02-15T06:39:16;28.70;99.90
16441;DHT22;8330;-33.858;151.184;2023-02-15T06:41:49;28.90;99.90
16441;DHT22;8330;-33.858;151.184;2023-02-15T06:44:20;29.20;99.90
16441;DHT22;8330;-33.858;151.184;2023-02-15T06:46:51;29.20;99.90
16441;DHT22;8330;-33.858;151.184;2023-02-15T06:49:23;29.60;99.90
16441;DHT22;8330;-33.858;151.184;2023-02-15T06:51:54;29.70;99.90
16441;DHT22;8330;-33.858;151.184;2023-02-15T06:54:25;29.80;99.90
16441;DHT22;8330;-33.858;151.184;2023-02-15T06:56:58;29.90;99.90
16441;DHT22;8330;-33.858;151.184;2023-02-15T06:59:29;30.00;99.90
16441;DHT22;8330;-33.858;151.184;2023-02-15T07:02:00;30.30;99.90
16441;DHT22;8330;-33.858;151.184;2023-02-15T07:04:32;30.80;99.90
16441;DHT22;8330;-33.858;151.184;2023-02-15T07:07:03;31.20;99.90
16441;DHT22;8330;-33.858;151.184;2023-02-15T07:09:34;31.20;99.90
16441;DHT22;8330;-33.858;151.184;2023-02-15T07:12:09;31.70;99.90
16441;DHT22;8330;-33.858;151.184;2023-02-15T07:14:55;32.20;99.90
16441;DHT22;8330;-33.858;151.184;2023-02-15T07:17:27;32.50;98.90
16441;DHT22;8330;-33.858;151.184;2023-02-15T07:19:59;32.80;96.70
16441;DHT22;8330;-33.858;151.184;2023-02-15T07:22:30;32.80;95.30
16441;DHT22;8330;-33.858;151.184;2023-02-15T07:25:02;32.90;92.30
16441;DHT22;8330;-33.858;151.184;2023-02-15T07:27:35;32.70;93.40
16441;DHT22;8330;-33.858;151.184;2023-02-15T07:30:08;32.60;92.70
16441;DHT22;8330;-33.858;151.184;2023-02-15T07:32:40;32.70;90.90
16441;DHT22;8330;-33.858;151.184;2023-02-15T07:35:24;32.70;89.50
16441;DHT22;8330;-33.858;151.184;2023-02-15T07:37:55;32.50;88.90
16441;DHT22;8330;-33.858;151.184;2023-02-15T07:40:27;32.30;90.10
16441;DHT22;8330;-33.858;151.184;2023-02-15T07:43:01;32.50;90.60
16441;DHT22;8330;-33.858;151.184;2023-02-15T07:45:32;32.50;85.20
16441;DHT22;8330;-33.858;151.184;2023-02-15T07:48:03;32.50;83.90
16441;DHT22;8330;-33.858;151.184;2023-02-15T07:50:36;32.30;85.30
16441;DHT22;8330;-33.858;151.184;2023-02-15T07:53:07;32.20;85.90
16441;DHT22;8330;-33.858;151.184;2023-02-15T07:55:38;32.00;85.40
16441;DHT22;8330;-33.858;151.184;2023-02-15T07:58:11;31.50;86.50
16441;DHT22;8330;-33.858;151.184;2023-02-15T08:00:42;31.10;88.40
16441;DHT22;8330;-33.858;151.184;2023-02-15T08:03:31;30.80;90.50
16441;DHT22;8330;-33.858;151.184;2023-02-15T08:06:03;30.00;92.40
16441;DHT22;8330;-33.858;151.184;2023-02-15T08:08:35;29.70;93.00
16441;DHT22;8330;-33.858;151.184;2023-02-15T08:11:13;29.40;95.30
16441;DHT22;8330;-33.858;151.184;2023-02-15T08:14:03;28.90;98.60
16441;DHT22;8330;-33.858;151.184;2023-02-15T08:16:36;28.50;99.90
16441;DHT22;8330;-33.858;151.184;2023-02-15T08:19:09;28.10;99.90
16441;DHT22;8330;-33.858;151.184;2023-02-15T08:21:42;27.70;99.90
16441;DHT22;8330;-33.858;151.184;2023-02-15T08:24:14;27.40;99.90
16441;DHT22;8330;-33.858;151.184;2023-02-15T08:26:46;27.10;99.90
16441;DHT22;8330;-33.858;151.184;2023-02-15T08:29:20;26.90;99.90
16441;DHT22;8330;-33.858;151.184;2023-02-15T08:31:52;26.70;99.90
16441;DHT22;8330;-33.858;151.184;2023-02-15T08:34:26;26.50;99.90
16441;DHT22;8330;-33.858;151.184;2023-02-15T08:36:57;26.30;99.90
16441;DHT22;8330;-33.858;151.184;2023-02-15T08:39:29;26.10;99.90
16441;DHT22;8330;-33.858;151.184;2023-02-15T08:42:01;26.00;99.90
16441;DHT22;8330;-33.858;151.184;2023-02-15T08:44:34;26.00;99.90
16441;DHT22;8330;-33.858;151.184;2023-02-15T08:47:05;25.90;99.90
16441;DHT22;8330;-33.858;151.184;2023-02-15T08:49:37;25.80;99.90
16441;DHT22;8330;-33.858;151.184;2023-02-15T08:52:08;25.70;99.90
16441;DHT22;8330;-33.858;151.184;2023-02-15T08:54:39;25.60;99.90
16441;DHT22;8330;-33.858;151.184;2023-02-15T08:57:10;25.60;99.90
16441;DHT22;8330;-33.858;151.184;2023-02-15T08:59:43;25.50;99.90
16441;DHT22;8330;-33.858;151.184;2023-02-15T09:02:14;25.50;99.90
16441;DHT22;8330;-33.858;151.184;2023-02-15T09:04:45;25.40;99.90
16441;DHT22;8330;-33.858;151.184;2023-02-15T09:07:16;25.40;99.90
16441;DHT22;8330;-33.858;151.184;2023-02-15T09:09:47;25.20;99.90
16441;DHT22;8330;-33.858;151.184;2023-02-15T09:12:18;25.20;99.90
16441;DHT22;8330;-33.858;151.184;2023-02-15T09:14:52;25.20;99.90
16441;DHT22;8330;-33.858;151.184;2023-02-15T09:17:23;25.10;99.90
16441;DHT22;8330;-33.858;151.184;2023-02-15T09:19:54;25.00;99.90
16441;DHT22;8330;-33.858;151.184;2023-02-15T09:22:25;25.00;99.90
16441;DHT22;8330;-33.858;151.184;2023-02-15T09:24:58;25.00;99.90
16441;DHT22;8330;-33.858;151.184;2023-02-15T09:27:31;24.90;99.90
16441;DHT22;8330;-33.858;151.184;2023-02-15T09:30:05;24.90;99.90
16441;DHT22;8330;-33.858;151.184;2023-02-15T09:32:36;24.90;99.90
16441;DHT22;8330;-33.858;151.184;2023-02-15T09:35:08;24.80;99.90
16441;DHT22;8330;-33.858;151.184;2023-02-15T09:37:40;24.80;99.90
16441;DHT22;8330;-33.858;151.184;2023-02-15T09:40:13;24.80;99.90
16441;DHT22;8330;-33.858;151.184;2023-02-15T09:43:13;24.70;99.90
16441;DHT22;8330;-33.858;151.184;2023-02-15T09:46:20;24.80;99.90
16441;DHT22;8330;-33.858;151.184;2023-02-15T09:48:54;24.70;99.90
16441;DHT22;8330;-33.858;151.184;2023-02-15T09:51:50;24.70;99.90
16441;DHT22;8330;-33.858;151.184;2023-02-15T09:54:38;24.70;99.90
16441;DHT22;8330;-33.858;151.184;2023-02-15T09:57:19;24.70;99.90
16441;DHT22;8330;-33.858;151.184;2023-02-15T10:00:02;24.70;99.90
16441;DHT22;8330;-33.858;151.184;2023-02-15T10:05:43;24.60;99.90
16441;DHT22;8330;-33.858;151.184;2023-02-15T10:08:45;24.60;99.90
16441;DHT22;8330;-33.858;151.184;2023-02-15T10:11:25;24.60;99.90
16441;DHT22;8330;-33.858;151.184;2023-02-15T10:14:32;24.50;99.90
16441;DHT22;8330;-33.858;151.184;2023-02-15T10:17:29;24.50;99.90
16441;DHT22;8330;-33.858;151.184;2023-02-15T10:20:12;24.50;99.90
16441;DHT22;8330;-33.858;151.184;2023-02-15T10:23:11;24.50;99.90
16441;DHT22;8330;-33.858;151.184;2023-02-15T10:25:49;24.50;99.90
16441;DHT22;8330;-33.858;151.184;2023-02-15T10:28:28;24.40;99.90
16441;DHT22;8330;-33.858;151.184;2023-02-15T10:31:24;24.40;99.90
16441;DHT22;8330;-33.858;151.184;2023-02-15T10:34:09;24.40;99.90
16441;DHT22;8330;-33.858;151.184;2023-02-15T10:37:00;24.30;99.90
16441;DHT22;8330;-33.858;151.184;2023-02-15T10:39:41;24.30;99.90
16441;DHT22;8330;-33.858;151.184;2023-02-15T10:42:25;24.30;99.90
16441;DHT22;8330;-33.858;151.184;2023-02-15T10:45:11;24.30;99.90
16441;DHT22;8330;-33.858;151.184;2023-02-15T10:47:54;24.30;99.90
16441;DHT22;8330;-33.858;151.184;2023-02-15T10:50:46;24.30;99.90
16441;DHT22;8330;-33.858;151.184;2023-02-15T10:53:38;24.20;99.90
16441;DHT22;8330;-33.858;151.184;2023-02-15T10:56:19;24.20;99.90
16441;DHT22;8330;-33.858;151.184;2023-02-15T11:01:53;24.20;99.90
16441;DHT22;8330;-33.858;151.184;2023-02-15T11:04:40;24.20;99.90
16441;DHT22;8330;-33.858;151.184;2023-02-15T11:07:16;24.20;99.90
16441;DHT22;8330;-33.858;151.184;2023-02-15T11:09:54;24.20;99.90
16441;DHT22;8330;-33.858;151.184;2023-02-15T11:12:28;24.10;99.90
16441;DHT22;8330;-33.858;151.184;2023-02-15T11:15:04;24.10;99.90
16441;DHT22;8330;-33.858;151.184;2023-02-15T11:17:43;24.10;99.90
16441;DHT22;8330;-33.858;151.184;2023-02-15T11:20:19;24.00;99.90
16441;DHT22;8330;-33.858;151.184;2023-02-15T11:22:52;24.00;99.90
16441;DHT22;8330;-33.858;151.184;2023-02-15T11:25:30;24.00;99.90
16441;DHT22;8330;-33.858;151.184;2023-02-15T11:28:03;24.00;99.90
16441;DHT22;8330;-33.858;151.184;2023-02-15T11:30:42;23.90;99.90
16441;DHT22;8330;-33.858;151.184;2023-02-15T11:33:19;24.00;99.90
16441;DHT22;8330;-33.858;151.184;2023-02-15T11:35:53;23.90;99.90
16441;DHT22;8330;-33.858;151.184;2023-02-15T11:38:29;23.90;99.90
16441;DHT22;8330;-33.858;151.184;2023-02-15T11:41:07;23.90;99.90
16441;DHT22;8330;-33.858;151.184;2023-02-15T11:43:43;23.90;99.90
16441;DHT22;8330;-33.858;151.184;2023-02-15T11:46:17;23.80;99.90
16441;DHT22;8330;-33.858;151.184;2023-02-15T11:48:50;23.90;99.90
16441;DHT22;8330;-33.858;151.184;2023-02-15T11:51:25;23.90;99.90
16441;DHT22;8330;-33.858;151.184;2023-02-15T11:53:58;23.90;99.90
16441;DHT22;8330;-33.858;151.184;2023-02-15T11:56:33;23.80;99.90
16441;DHT22;8330;-33.858;151.184;2023-02-15T11:59:09;23.80;99.90
16441;DHT22;8330;-33.858;151.184;2023-02-15T12:01:43;23.80;99.90
16441;DHT22;8330;-33.858;151.184;2023-02-15T12:04:19;23.70;99.90
16441;DHT22;8330;-33.858;151.184;2023-02-15T12:06:55;23.70;99.90
16441;DHT22;8330;-33.858;151.184;2023-02-15T12:09:34;23.70;99.90
16441;DHT22;8330;-33.858;151.184;2023-02-15T12:12:26;23.70;99.90
16441;DHT22;8330;-33.858;151.184;2023-02-15T12:14:58;23.70;99.90
16441;DHT22;8330;-33.858;151.184;2023-02-15T12:17:32;23.70;99.90
16441;DHT22;8330;-33.858;151.184;2023-02-15T12:20:07;23.70;99.90
16441;DHT22;8330;-33.858;151.184;2023-02-15T12:22:53;23.60;99.90
16441;DHT22;8330;-33.858;151.184;2023-02-15T12:25:29;23.60;99.90
16441;DHT22;8330;-33.858;151.184;2023-02-15T12:28:03;23.60;99.90
16441;DHT22;8330;-33.858;151.184;2023-02-15T12:30:37;23.50;99.90
16441;DHT22;8330;-33.858;151.184;2023-02-15T12:33:25;23.50;99.90
16441;DHT22;8330;-33.858;151.184;2023-02-15T12:36:03;23.50;99.90
16441;DHT22;8330;-33.858;151.184;2023-02-15T12:38:36;23.50;99.90
16441;DHT22;8330;-33.858;151.184;2023-02-15T12:41:23;23.40;99.90
16441;DHT22;8330;-33.858;151.184;2023-02-15T12:44:15;23.40;99.90
16441;DHT22;8330;-33.858;151.184;2023-02-15T12:46:57;23.40;99.90
16441;DHT22;8330;-33.858;151.184;2023-02-15T12:49:31;23.40;99.90
16441;DHT22;8330;-33.858;151.184;2023-02-15T12:52:03;23.30;99.90
16441;DHT22;8330;-33.858;151.184;2023-02-15T12:54:37;23.40;99.90
16441;DHT22;8330;-33.858;151.184;2023-02-15T12:57:29;23.40;99.90
16441;DHT22;8330;-33.858;151.184;2023-02-15T13:00:11;23.30;99.90
16441;DHT22;8330;-33.858;151.184;2023-02-15T13:02:56;23.30;99.90
16441;DHT22;8330;-33.858;151.184;2023-02-15T13:05:33;23.30;99.90
16441;DHT22;8330;-33.858;151.184;2023-02-15T13:08:12;23.30;99.90
16441;DHT22;8330;-33.858;151.184;2023-02-15T13:10:53;23.30;99.90
16441;DHT22;8330;-33.858;151.184;2023-02-15T13:13:27;23.30;99.90
16441;DHT22;8330;-33.858;151.184;2023-02-15T13:16:04;23.30;99.90
16441;DHT22;8330;-33.858;151.184;2023-02-15T13:18:38;23.30;99.90
16441;DHT22;8330;-33.858;151.184;2023-02-15T13:21:13;23.30;99.90
16441;DHT22;8330;-33.858;151.184;2023-02-15T13:23:47;23.10;99.90
16441;DHT22;8330;-33.858;151.184;2023-02-15T13:26:21;23.10;99.90
16441;DHT22;8330;-33.858;151.184;2023-02-15T13:28:55;23.10;99.90
16441;DHT22;8330;-33.858;151.184;2023-02-15T13:31:30;23.10;99.90
16441;DHT22;8330;-33.858;151.184;2023-02-15T13:34:09;23.10;99.90
16441;DHT22;8330;-33.858;151.184;2023-02-15T13:36:49;23.10;99.90
16441;DHT22;8330;-33.858;151.184;2023-02-15T13:39:29;23.10;99.90
16441;DHT22;8330;-33.858;151.184;2023-02-15T13:42:05;23.00;99.90
16441;DHT22;8330;-33.858;151.184;2023-02-15T13:45:02;23.00;99.90
16441;DHT22;8330;-33.858;151.184;2023-02-15T13:47:44;22.90;99.90
16441;DHT22;8330;-33.858;151.184;2023-02-15T13:50:28;22.90;99.90
16441;DHT22;8330;-33.858;151.184;2023-02-15T13:53:17;22.90;99.90
16441;DHT22;8330;-33.858;151.184;2023-02-15T13:55:53;22.70;99.90
16441;DHT22;8330;-33.858;151.184;2023-02-15T14:01:38;22.70;99.90
16441;DHT22;8330;-33.858;151.184;2023-02-15T14:04:47;22.70;99.90
16441;DHT22;8330;-33.858;151.184;2023-02-15T14:07:33;22.70;99.90
16441;DHT22;8330;-33.858;151.184;2023-02-15T14:10:23;22.70;99.90
16441;DHT22;8330;-33.858;151.184;2023-02-15T14:13:15;22.70;99.90
16441;DHT22;8330;-33.858;151.184;2023-02-15T14:15:50;22.70;99.90
16441;DHT22;8330;-33.858;151.184;2023-02-15T14:18:34;22.80;99.90
16441;DHT22;8330;-33.858;151.184;2023-02-15T14:21:13;22.70;99.90
16441;DHT22;8330;-33.858;151.184;2023-02-15T14:23:57;22.70;99.90
16441;DHT22;8330;-33.858;151.184;2023-02-15T14:26:38;22.70;99.90
16441;DHT22;8330;-33.858;151.184;2023-02-15T14:29:20;22.70;99.90
16441;DHT22;8330;-33.858;151.184;2023-02-15T14:31:55;22.70;99.90
16441;DHT22;8330;-33.858;151.184;2023-02-15T14:34:34;22.70;99.90
16441;DHT22;8330;-33.858;151.184;2023-02-15T14:37:13;22.70;99.90
16441;DHT22;8330;-33.858;151.184;2023-02-15T14:39:55;22.70;99.90
16441;DHT22;8330;-33.858;151.184;2023-02-15T14:42:47;22.70;99.90
16441;DHT22;8330;-33.858;151.184;2023-02-15T14:45:25;22.70;99.90
16441;DHT22;8330;-33.858;151.184;2023-02-15T14:48:09;22.60;99.90
16441;DHT22;8330;-33.858;151.184;2023-02-15T14:50:44;22.60;99.90
16441;DHT22;8330;-33.858;151.184;2023-02-15T14:53:34;22.60;99.90
16441;DHT22;8330;-33.858;151.184;2023-02-15T14:56:32;22.60;99.90
16441;DHT22;8330;-33.858;151.184;2023-02-15T14:59:18;22.70;99.90
16441;DHT22;8330;-33.858;151.184;2023-02-15T15:02:04;22.60;99.90
16441;DHT22;8330;-33.858;151.184;2023-02-15T15:04:42;22.60;99.90
16441;DHT22;8330;-33.858;151.184;2023-02-15T15:07:19;22.60;99.90
16441;DHT22;8330;-33.858;151.184;2023-02-15T15:10:00;22.60;99.90
16441;DHT22;8330;-33.858;151.184;2023-02-15T15:12:44;22.60;99.90
16441;DHT22;8330;-33.858;151.184;2023-02-15T15:15:32;22.60;99.90
16441;DHT22;8330;-33.858;151.184;2023-02-15T15:18:05;22.60;99.90
16441;DHT22;8330;-33.858;151.184;2023-02-15T15:20:42;22.50;99.90
16441;DHT22;8330;-33.858;151.184;2023-02-15T15:23:42;22.40;99.90
16441;DHT22;8330;-33.858;151.184;2023-02-15T15:26:29;22.40;99.90
16441;DHT22;8330;-33.858;151.184;2023-02-15T15:29:02;22.40;99.90
16441;DHT22;8330;-33.858;151.184;2023-02-15T15:31:46;22.40;99.90
16441;DHT22;8330;-33.858;151.184;2023-02-15T15:38:06;22.50;99.90
16441;DHT22;8330;-33.858;151.184;2023-02-15T15:41:06;22.40;99.90
16441;DHT22;8330;-33.858;151.184;2023-02-15T15:44:11;22.30;99.90
16441;DHT22;8330;-33.858;151.184;2023-02-15T15:47:04;22.40;99.90
16441;DHT22;8330;-33.858;151.184;2023-02-15T15:49:39;22.40;99.90
16441;DHT22;8330;-33.858;151.184;2023-02-15T15:52:14;22.30;99.90
16441;DHT22;8330;-33.858;151.184;2023-02-15T15:54:48;22.40;99.90
16441;DHT22;8330;-33.858;151.184;2023-02-15T15:57:23;22.30;99.90
16441;DHT22;8330;-33.858;151.184;2023-02-15T15:59:58;22.20;99.90
16441;DHT22;8330;-33.858;151.184;2023-02-15T16:02:29;22.20;99.90
16441;DHT22;8330;-33.858;151.184;2023-02-15T16:05:08;22.20;99.90
16441;DHT22;8330;-33.858;151.184;2023-02-15T16:07:42;22.20;99.90
16441;DHT22;8330;-33.858;151.184;2023-02-15T16:10:22;22.20;99.90
16441;DHT22;8330;-33.858;151.184;2023-02-15T16:12:54;22.10;99.90
16441;DHT22;8330;-33.858;151.184;2023-02-15T16:15:35;22.10;99.90
16441;DHT22;8330;-33.858;151.184;2023-02-15T16:18:10;22.00;99.90
16441;DHT22;8330;-33.858;151.184;2023-02-15T16:20:42;22.00;99.90